createdAt,value
2023-07-15T00:02:23.677Z,81.56
2023-07-15T00:08:17.028Z,81.68
2023-07-15T00:10:45.474Z,81.95
2023-07-15T00:13:14.009Z,82.16
2023-07-15T00:15:43.065Z,82.15
2023-07-15T00:18:10.989Z,82.28
2023-07-15T00:20:38.678Z,82.50
2023-07-15T00:23:22.581Z,82.80
2023-07-15T00:25:51.905Z,82.91
2023-07-15T00:28:19.590Z,83.08
2023-07-15T00:30:47.115Z,83.20
2023-07-15T00:33:15.982Z,83.33
2023-07-15T00:35:44.391Z,83.41
2023-07-15T00:38:11.976Z,83.63
2023-07-15T00:40:41.515Z,83.82
2023-07-15T00:43:46.572Z,84.21
2023-07-15T00:46:24.948Z,84.64
2023-07-15T00:49:11.136Z,84.96
2023-07-15T00:51:40.088Z,85.05
2023-07-15T00:54:07.882Z,85.34
2023-07-15T00:56:36.260Z,85.52
2023-07-15T00:59:05.361Z,85.70
2023-07-15T01:01:32.935Z,85.61
2023-07-15T01:04:00.724Z,85.96
2023-07-15T01:06:28.209Z,86.07
2023-07-15T01:08:55.669Z,86.10
2023-07-15T01:11:23.215Z,86.36
2023-07-15T01:13:50.698Z,86.34
2023-07-15T01:16:18.423Z,86.43
2023-07-15T01:18:46.093Z,86.64
2023-07-15T01:21:14.375Z,86.69
2023-07-15T01:23:41.859Z,86.98
2023-07-15T01:26:09.345Z,87.23
2023-07-15T01:28:38.621Z,87.54
2023-07-15T01:31:06.395Z,87.78
2023-07-15T01:33:34.175Z,88.41
2023-07-15T01:36:01.757Z,88.54
2023-07-15T01:38:29.523Z,88.92
2023-07-15T01:40:57.021Z,89.46
2023-07-15T01:43:25.446Z,89.93
2023-07-15T01:45:54.124Z,90.43
2023-07-15T01:48:24.694Z,91.02
2023-07-15T01:50:53.679Z,91.35
2023-07-15T01:53:21.204Z,91.83
2023-07-15T01:55:48.722Z,92.14
2023-07-15T01:58:17.703Z,92.73
2023-07-15T02:00:45.237Z,92.97
2023-07-15T02:03:12.977Z,93.13
2023-07-15T02:05:40.695Z,93.28
2023-07-15T02:08:08.647Z,93.38
2023-07-15T02:10:36.278Z,93.37
2023-07-15T02:13:03.781Z,93.31
2023-07-15T02:15:31.269Z,93.39
2023-07-15T02:17:59.767Z,93.41
2023-07-15T02:20:27.397Z,93.24
2023-07-15T02:22:54.964Z,93.08
2023-07-15T02:25:22.586Z,92.94
2023-07-15T02:27:51.034Z,92.41
2023-07-15T02:30:21.159Z,91.95
2023-07-15T02:32:48.797Z,91.51
2023-07-15T02:35:16.609Z,91.36
2023-07-15T02:37:45.186Z,91.15
2023-07-15T02:40:13.009Z,90.78
2023-07-15T02:42:40.567Z,90.56
2023-07-15T02:45:11.442Z,90.41
2023-07-15T02:47:41.120Z,89.95
2023-07-15T02:50:09.877Z,89.80
2023-07-15T02:52:39.085Z,89.50
2023-07-15T02:55:08.332Z,89.65
2023-07-15T02:57:35.950Z,89.96
2023-07-15T03:00:16.105Z,90.51
2023-07-15T03:02:49.478Z,91.17
2023-07-15T03:05:17.455Z,91.59
2023-07-15T03:07:46.403Z,91.88
2023-07-15T03:10:14.589Z,92.21
2023-07-15T03:12:44.026Z,92.63
2023-07-15T03:15:11.631Z,93.16
2023-07-15T03:17:39.330Z,93.51
2023-07-15T03:20:23.343Z,93.88
2023-07-15T03:22:51.021Z,94.39
2023-07-15T03:25:20.937Z,94.70
2023-07-15T03:27:49.420Z,95.12
2023-07-15T03:30:17.203Z,95.07
2023-07-15T03:32:45.619Z,94.88
2023-07-15T03:35:16.304Z,93.87
2023-07-15T03:37:44.552Z,92.74
2023-07-15T03:40:13.736Z,91.09
2023-07-15T03:42:44.928Z,88.70
2023-07-15T03:45:12.499Z,87.88
2023-07-15T03:47:40.218Z,87.60
2023-07-15T03:50:09.257Z,86.91
2023-07-15T03:52:36.738Z,86.42
2023-07-15T03:55:04.729Z,86.32
2023-07-15T03:57:32.469Z,86.23
2023-07-15T03:59:59.996Z,86.04
2023-07-15T04:02:28.690Z,85.50
2023-07-15T04:04:56.376Z,85.07
2023-07-15T04:07:23.866Z,85.01
2023-07-15T04:09:51.958Z,84.88
2023-07-15T04:15:45.061Z,85.17
2023-07-15T04:18:12.051Z,84.53
2023-07-15T04:20:39.245Z,83.94
2023-07-15T04:23:06.111Z,83.82
2023-07-15T04:25:33.018Z,83.99
2023-07-15T04:27:59.709Z,83.28
2023-07-15T04:30:26.529Z,83.07
2023-07-15T04:32:53.385Z,82.79
2023-07-15T04:35:21.830Z,82.19
2023-07-15T04:37:48.588Z,81.70
2023-07-15T04:40:16.509Z,81.62
2023-07-15T04:42:45.570Z,81.37
2023-07-15T04:45:13.571Z,81.25
2023-07-15T04:47:41.112Z,81.18
2023-07-15T04:50:08.206Z,82.00
2023-07-15T04:52:35.033Z,83.29
2023-07-15T04:55:01.832Z,83.86
2023-07-15T04:57:28.736Z,84.35
2023-07-15T04:59:55.434Z,84.67
2023-07-15T05:02:22.494Z,85.03
2023-07-15T05:04:50.799Z,85.72
2023-07-15T05:07:17.743Z,86.86
2023-07-15T05:09:45.961Z,87.77
2023-07-15T05:12:13.120Z,88.07
2023-07-15T05:14:40.509Z,88.44
2023-07-15T05:17:10.439Z,88.75
2023-07-15T05:19:39.137Z,89.11
2023-07-15T05:22:07.199Z,88.85
2023-07-15T05:24:33.884Z,89.26
2023-07-15T05:27:00.599Z,89.55
2023-07-15T05:29:27.365Z,89.43
2023-07-15T05:31:54.189Z,88.57
2023-07-15T05:34:20.877Z,88.66
2023-07-15T05:36:48.350Z,88.74
2023-07-15T05:39:16.196Z,88.63
2023-07-15T05:41:42.826Z,88.59
2023-07-15T05:44:10.150Z,88.55
2023-07-15T05:46:38.137Z,87.67
2023-07-15T05:49:04.869Z,87.40
2023-07-15T05:51:31.986Z,85.46
2023-07-15T05:53:59.049Z,84.26
2023-07-15T05:56:25.698Z,82.75
2023-07-15T05:58:52.350Z,80.41
2023-07-15T06:01:19.394Z,78.65
2023-07-15T06:03:46.516Z,77.33
2023-07-15T06:06:16.966Z,76.75
2023-07-15T06:08:46.530Z,76.01
2023-07-15T06:11:13.455Z,75.45
2023-07-15T06:13:40.309Z,75.09
2023-07-15T06:16:06.943Z,72.80
2023-07-15T06:18:34.336Z,71.92
2023-07-15T06:21:01.206Z,71.71
2023-07-15T06:23:28.050Z,70.47
2023-07-15T06:25:56.285Z,69.24
2023-07-15T06:28:23.912Z,66.56
2023-07-15T06:30:59.742Z,65.77
2023-07-15T06:33:26.929Z,66.12
2023-07-15T06:35:53.587Z,65.57
2023-07-15T06:38:20.195Z,65.06
2023-07-15T06:40:47.120Z,64.93
2023-07-15T06:43:13.878Z,64.84
2023-07-15T06:45:40.752Z,64.20
2023-07-15T06:48:08.097Z,63.84
2023-07-15T06:50:37.206Z,63.34
2023-07-15T06:53:03.819Z,63.40
2023-07-15T06:55:30.636Z,63.06
2023-07-15T06:57:57.307Z,62.35
2023-07-15T07:00:25.441Z,60.72
2023-07-15T07:02:52.321Z,59.82
2023-07-15T07:05:19.914Z,59.48
2023-07-15T07:07:47.552Z,59.59
2023-07-15T07:10:14.417Z,59.22
2023-07-15T07:12:42.581Z,58.46
2023-07-15T07:15:10.629Z,58.48
2023-07-15T07:17:37.836Z,59.60
2023-07-15T07:20:05.479Z,61.16
2023-07-15T07:22:32.612Z,62.11
2023-07-15T07:24:59.525Z,62.69
2023-07-15T07:27:26.214Z,63.28
2023-07-15T07:29:53.164Z,64.28
2023-07-15T07:32:19.908Z,64.99
2023-07-15T07:34:46.778Z,65.49
2023-07-15T07:37:13.409Z,65.60
2023-07-15T07:39:40.246Z,65.73
2023-07-15T07:42:08.562Z,64.66
2023-07-15T07:44:35.176Z,64.30
2023-07-15T07:47:01.972Z,64.33
2023-07-15T07:49:29.081Z,65.02
2023-07-15T07:51:55.873Z,65.17
2023-07-15T07:54:22.666Z,64.28
2023-07-15T07:56:49.456Z,64.20
2023-07-15T07:59:16.182Z,63.56
2023-07-15T08:01:43.647Z,62.67
2023-07-15T08:04:10.218Z,62.41
2023-07-15T08:06:36.996Z,63.17
2023-07-15T08:09:03.946Z,63.39
2023-07-15T08:11:30.974Z,63.26
2023-07-15T08:13:57.665Z,62.56
2023-07-15T08:16:31.653Z,62.10
2023-07-15T08:18:59.087Z,62.05
2023-07-15T08:21:27.183Z,61.42
2023-07-15T08:23:54.662Z,61.52
2023-07-15T08:26:21.859Z,61.33
2023-07-15T08:28:48.716Z,61.01
2023-07-15T08:31:19.751Z,61.74
2023-07-15T08:33:46.538Z,61.63
2023-07-15T08:36:13.649Z,62.26
2023-07-15T08:38:40.789Z,62.96
2023-07-15T08:41:07.444Z,60.83
2023-07-15T08:43:35.007Z,58.64
2023-07-15T08:46:07.754Z,58.46
2023-07-15T08:48:34.998Z,58.89
2023-07-15T08:51:02.013Z,58.06
2023-07-15T08:53:29.222Z,57.19
2023-07-15T08:55:56.876Z,56.63
2023-07-15T08:58:24.166Z,56.02
2023-07-15T09:00:54.538Z,56.05
2023-07-15T09:03:22.432Z,56.39
2023-07-15T09:05:49.451Z,55.54
2023-07-15T09:08:16.381Z,55.84
2023-07-15T09:10:55.971Z,55.71
2023-07-15T09:13:30.280Z,54.56
2023-07-15T09:15:57.941Z,54.63
2023-07-15T09:18:24.757Z,54.84
2023-07-15T09:20:51.624Z,55.40
2023-07-15T09:23:18.924Z,55.60
2023-07-15T09:25:54.924Z,56.11
2023-07-15T09:28:22.140Z,55.78
2023-07-15T09:30:48.936Z,54.07
2023-07-15T09:33:30.784Z,54.43
2023-07-15T09:35:58.013Z,55.24
2023-07-15T09:38:30.167Z,55.02
2023-07-15T09:40:57.531Z,54.31
2023-07-15T09:43:26.884Z,54.61
2023-07-15T09:45:53.508Z,55.12
2023-07-15T09:48:20.371Z,54.17
2023-07-15T09:50:47.130Z,52.25
2023-07-15T09:53:13.847Z,51.96
2023-07-15T09:55:43.338Z,52.00
2023-07-15T09:58:11.487Z,51.80
2023-07-15T10:00:43.057Z,51.96
2023-07-15T10:03:14.048Z,52.01
2023-07-15T10:05:41.257Z,51.63
2023-07-15T10:08:08.192Z,52.23
2023-07-15T10:10:34.856Z,52.26
2023-07-15T10:13:01.798Z,51.98
2023-07-15T10:15:28.863Z,52.01
2023-07-15T10:17:55.541Z,51.93
2023-07-15T10:20:23.083Z,52.22
2023-07-15T10:22:50.452Z,52.13
2023-07-15T10:25:17.280Z,51.67
2023-07-15T10:27:45.771Z,51.84
2023-07-15T10:30:27.442Z,51.94
2023-07-15T10:33:06.481Z,51.60
2023-07-15T10:35:54.299Z,51.05
2023-07-15T10:38:21.355Z,50.95
2023-07-15T10:40:48.272Z,50.71
2023-07-15T10:43:22.487Z,50.26
2023-07-15T10:45:56.171Z,49.87
2023-07-15T10:48:23.172Z,49.63
2023-07-15T10:50:53.904Z,49.92
2023-07-15T10:53:24.092Z,49.95
2023-07-15T10:55:55.314Z,49.74
2023-07-15T10:58:23.175Z,49.04
2023-07-15T11:00:50.126Z,49.24
2023-07-15T11:03:18.231Z,49.40
2023-07-15T11:05:45.220Z,48.88
2023-07-15T11:08:12.815Z,48.23
2023-07-15T11:10:39.526Z,47.59
2023-07-15T11:13:16.098Z,47.44
2023-07-15T11:15:47.095Z,47.53
2023-07-15T11:18:20.456Z,47.72
2023-07-15T11:20:49.325Z,47.82
2023-07-15T11:23:17.491Z,47.83
2023-07-15T11:25:45.026Z,47.75
2023-07-15T11:28:11.885Z,48.03
2023-07-15T11:30:48.541Z,48.40
2023-07-15T11:33:16.369Z,48.24
2023-07-15T11:35:45.157Z,48.23
2023-07-15T11:38:13.227Z,47.31
2023-07-15T11:40:58.012Z,46.43
2023-07-15T11:43:26.171Z,45.79
2023-07-15T11:45:56.834Z,45.65
2023-07-15T11:48:26.687Z,45.77
2023-07-15T11:50:57.862Z,45.22
2023-07-15T11:53:34.741Z,44.15
2023-07-15T11:56:01.615Z,44.09
2023-07-15T11:58:46.974Z,44.18
2023-07-15T12:01:15.235Z,44.20
2023-07-15T12:03:42.139Z,44.13
2023-07-15T12:06:14.076Z,44.79
2023-07-15T12:08:41.146Z,44.91
2023-07-15T12:11:08.268Z,44.48
2023-07-15T12:13:35.009Z,44.18
2023-07-15T12:16:01.756Z,44.33
2023-07-15T12:18:28.786Z,43.71
2023-07-15T12:20:55.505Z,43.16
2023-07-15T12:23:22.521Z,42.02
2023-07-15T12:25:49.561Z,41.92
2023-07-15T12:28:16.501Z,41.89
2023-07-15T12:30:43.587Z,41.20
2023-07-15T12:33:10.286Z,41.07
2023-07-15T12:35:38.258Z,41.34
2023-07-15T12:38:04.920Z,40.90
2023-07-15T12:40:31.789Z,40.53
2023-07-15T12:42:58.600Z,40.93
2023-07-15T12:45:25.223Z,40.49
2023-07-15T12:47:52.096Z,40.53
2023-07-15T12:50:18.784Z,40.88
2023-07-15T12:52:45.852Z,40.97
2023-07-15T12:55:12.678Z,41.21
2023-07-15T12:57:39.720Z,41.02
2023-07-15T13:00:07.089Z,41.40
2023-07-15T13:02:34.290Z,41.09
2023-07-15T13:05:00.967Z,41.32
2023-07-15T13:07:27.643Z,41.29
2023-07-15T13:09:54.284Z,41.55
2023-07-15T13:12:21.400Z,41.52
2023-07-15T13:14:49.937Z,41.12
2023-07-15T13:17:16.577Z,40.94
2023-07-15T13:19:43.434Z,41.03
2023-07-15T13:22:10.103Z,41.03
2023-07-15T13:24:37.251Z,40.86
2023-07-15T13:27:04.156Z,40.01
2023-07-15T13:29:31.226Z,39.91
2023-07-15T13:31:57.979Z,39.92
2023-07-15T13:34:24.768Z,39.96
2023-07-15T13:36:51.862Z,39.40
2023-07-15T13:39:38.642Z,39.67
2023-07-15T13:42:13.226Z,40.12
2023-07-15T13:44:39.896Z,39.71
2023-07-15T13:47:06.984Z,39.54
2023-07-15T13:49:33.744Z,39.15
2023-07-15T13:52:01.143Z,38.57
2023-07-15T13:54:27.923Z,38.19
2023-07-15T13:56:54.870Z,37.99
2023-07-15T13:59:21.689Z,38.31
2023-07-15T14:01:49.141Z,38.63
2023-07-15T14:04:15.988Z,39.23
2023-07-15T14:06:47.074Z,39.76
2023-07-15T14:09:17.198Z,39.84
2023-07-15T14:11:45.398Z,39.58
2023-07-15T14:14:14.755Z,39.48
2023-07-15T14:16:41.472Z,39.28
2023-07-15T14:19:08.137Z,39.36
2023-07-15T14:21:35.124Z,39.76
2023-07-15T14:24:04.466Z,39.47
2023-07-15T14:26:31.886Z,39.00
2023-07-15T14:28:58.758Z,39.30
2023-07-15T14:31:25.500Z,39.42
2023-07-15T14:33:54.798Z,39.60
2023-07-15T14:36:25.534Z,39.79
2023-07-15T14:38:52.652Z,39.95
2023-07-15T14:41:19.216Z,40.09
2023-07-15T14:43:47.514Z,40.64
2023-07-15T14:46:14.224Z,40.54
2023-07-15T14:51:30.785Z,40.25
2023-07-15T14:53:57.391Z,39.57
2023-07-15T14:56:24.105Z,39.67
2023-07-15T14:58:50.911Z,39.86
2023-07-15T15:01:18.504Z,40.20
2023-07-15T15:03:45.943Z,40.56
2023-07-15T15:06:12.787Z,40.73
2023-07-15T15:08:41.833Z,40.93
2023-07-15T15:11:08.835Z,41.27
2023-07-15T15:13:35.482Z,41.28
2023-07-15T15:16:02.172Z,41.59
2023-07-15T15:18:29.583Z,41.70
2023-07-15T15:20:56.358Z,41.46
2023-07-15T15:23:24.768Z,41.06
2023-07-15T15:25:51.671Z,41.10
2023-07-15T15:28:19.045Z,41.26
2023-07-15T15:30:45.799Z,40.82
2023-07-15T15:33:16.741Z,40.98
2023-07-15T15:35:43.716Z,41.16
2023-07-15T15:38:10.408Z,41.62
2023-07-15T15:40:39.225Z,41.69
2023-07-15T15:43:05.944Z,41.40
2023-07-15T15:45:34.138Z,41.17
2023-07-15T15:48:00.793Z,41.43
2023-07-15T15:50:27.912Z,41.48
2023-07-15T15:52:54.588Z,41.05
2023-07-15T15:55:21.264Z,41.10
2023-07-15T15:57:47.964Z,41.24
2023-07-15T16:00:18.405Z,41.56
2023-07-15T16:02:45.114Z,42.02
2023-07-15T16:05:13.661Z,42.64
2023-07-15T16:07:40.766Z,43.06
2023-07-15T16:10:08.171Z,43.47
2023-07-15T16:12:35.611Z,44.02
2023-07-15T16:15:02.338Z,43.98
2023-07-15T16:17:29.202Z,44.08
2023-07-15T16:19:55.804Z,43.81
2023-07-15T16:22:22.521Z,43.45
2023-07-15T16:24:49.741Z,43.50
2023-07-15T16:27:16.591Z,43.23
2023-07-15T16:29:43.334Z,43.44
2023-07-15T16:32:10.012Z,43.50
2023-07-15T16:34:36.871Z,43.49
2023-07-15T16:37:04.318Z,43.59
2023-07-15T16:39:31.111Z,43.79
2023-07-15T16:41:57.685Z,43.75
2023-07-15T16:44:24.351Z,43.94
2023-07-15T16:46:51.208Z,44.16
2023-07-15T16:49:17.868Z,44.39
2023-07-15T16:51:44.627Z,44.93
2023-07-15T16:54:11.350Z,45.41
2023-07-15T16:56:38.233Z,45.57
2023-07-15T16:59:05.805Z,45.95
2023-07-15T17:01:32.817Z,46.22
2023-07-15T17:03:59.841Z,46.42
2023-07-15T17:06:26.473Z,46.65
2023-07-15T17:08:53.320Z,46.92
2023-07-15T17:11:20.035Z,47.20
2023-07-15T17:13:46.692Z,47.43
2023-07-15T17:16:13.416Z,47.20
2023-07-15T17:18:40.708Z,47.05
2023-07-15T17:21:07.258Z,47.06
2023-07-15T17:23:34.505Z,46.48
2023-07-15T17:26:01.124Z,46.12
2023-07-15T17:28:27.951Z,45.58
2023-07-15T17:30:54.634Z,45.66
2023-07-15T17:33:21.787Z,45.58
2023-07-15T17:35:49.312Z,45.48
2023-07-15T17:38:16.152Z,45.55
2023-07-15T17:40:43.090Z,45.36
2023-07-15T17:43:09.979Z,45.00
2023-07-15T17:45:36.572Z,44.87
2023-07-15T17:48:03.983Z,44.64
2023-07-15T17:50:30.830Z,44.77
2023-07-15T17:52:58.827Z,44.86
2023-07-15T17:55:26.091Z,44.90
2023-07-15T17:57:54.908Z,44.77
2023-07-15T18:00:24.490Z,44.74
2023-07-15T18:02:51.723Z,44.70
2023-07-15T18:05:18.539Z,44.70
2023-07-15T18:07:45.261Z,44.68
2023-07-15T18:10:13.144Z,44.54
2023-07-15T18:12:39.918Z,44.31
2023-07-15T18:15:07.162Z,44.44
2023-07-15T18:17:33.874Z,44.47
2023-07-15T18:20:00.585Z,44.38
2023-07-15T18:22:27.418Z,44.44
2023-07-15T18:24:54.177Z,44.47
2023-07-15T18:27:20.952Z,44.48
2023-07-15T18:29:47.777Z,44.43
2023-07-15T18:32:15.021Z,44.49
2023-07-15T18:34:41.941Z,44.55
2023-07-15T18:37:08.992Z,44.70
2023-07-15T18:39:35.806Z,45.28
2023-07-15T18:42:02.876Z,46.12
2023-07-15T18:44:30.321Z,46.78
2023-07-15T18:46:56.936Z,47.15
2023-07-15T18:49:23.957Z,47.30
2023-07-15T18:51:52.082Z,47.21
2023-07-15T18:54:19.072Z,47.05
2023-07-15T18:56:45.864Z,47.27
2023-07-15T18:59:12.873Z,47.45
2023-07-15T19:01:40.056Z,47.51
2023-07-15T19:04:06.888Z,47.80
2023-07-15T19:06:33.906Z,48.12
2023-07-15T19:09:00.673Z,48.36
2023-07-15T19:11:27.616Z,48.39
2023-07-15T19:13:54.304Z,48.72
2023-07-15T19:16:21.146Z,48.85
2023-07-15T19:18:47.912Z,48.90
2023-07-15T19:21:14.885Z,49.12
2023-07-15T19:23:41.889Z,49.35
2023-07-15T19:26:08.741Z,49.54
2023-07-15T19:28:36.476Z,49.70
2023-07-15T19:31:03.412Z,49.76
2023-07-15T19:33:31.773Z,49.81
2023-07-15T19:35:58.680Z,50.12
2023-07-15T19:38:25.615Z,50.27
2023-07-15T19:40:52.560Z,50.42
2023-07-15T19:43:19.323Z,50.44
2023-07-15T19:45:46.027Z,50.62
2023-07-15T19:48:13.354Z,50.80
2023-07-15T19:50:40.186Z,50.97
2023-07-15T19:53:06.882Z,51.06
2023-07-15T19:55:33.984Z,51.31
2023-07-15T19:58:01.357Z,51.15
2023-07-15T20:00:28.073Z,50.88
2023-07-15T20:02:54.775Z,50.69
2023-07-15T20:05:21.378Z,50.76
2023-07-15T20:07:48.344Z,51.00
2023-07-15T20:10:15.096Z,51.10
2023-07-15T20:12:41.935Z,51.42
2023-07-15T20:15:08.968Z,51.68
2023-07-15T20:17:35.829Z,52.12
2023-07-15T20:20:03.527Z,52.55
2023-07-15T20:22:30.647Z,53.23
2023-07-15T20:24:57.380Z,53.76
2023-07-15T20:27:24.037Z,54.06
2023-07-15T20:29:51.011Z,54.55
2023-07-15T20:32:20.394Z,54.68
2023-07-15T20:34:47.582Z,54.47
2023-07-15T20:37:14.693Z,54.74
2023-07-15T20:39:41.341Z,54.91
2023-07-15T20:42:09.633Z,54.88
2023-07-15T20:44:36.377Z,55.08
2023-07-15T20:47:03.313Z,55.36
2023-07-15T20:49:29.993Z,55.58
2023-07-15T20:51:56.598Z,55.63
2023-07-15T20:54:23.475Z,55.88
2023-07-15T20:56:50.364Z,55.72
2023-07-15T20:59:18.031Z,55.72
2023-07-15T21:01:45.103Z,55.62
2023-07-15T21:04:12.151Z,55.59
2023-07-15T21:06:39.359Z,55.62
2023-07-15T21:10:33.507Z,55.86
2023-07-15T21:13:01.571Z,55.77
2023-07-15T21:15:29.255Z,55.76
2023-07-15T21:17:57.046Z,55.78
2023-07-15T21:20:24.556Z,55.92
2023-07-15T21:22:52.109Z,56.19
2023-07-15T21:25:19.710Z,56.29
2023-07-15T21:27:47.235Z,56.41
2023-07-15T21:30:14.722Z,56.46
2023-07-15T21:32:42.299Z,56.39
2023-07-15T21:35:10.611Z,56.59
2023-07-15T21:37:38.232Z,56.58
2023-07-15T21:40:06.581Z,56.48
2023-07-15T21:42:34.047Z,56.37
2023-07-15T21:45:01.612Z,56.16
2023-07-15T21:47:29.452Z,55.81
2023-07-15T21:49:56.971Z,55.70
2023-07-15T21:52:24.504Z,55.61
2023-07-15T21:54:51.944Z,55.29
2023-07-15T21:57:19.586Z,55.50
2023-07-15T21:59:47.160Z,55.08
2023-07-15T22:02:14.667Z,55.00
2023-07-15T22:04:42.264Z,54.82
2023-07-15T22:07:10.639Z,54.70
2023-07-15T22:22:00.790Z,54.58
2023-07-15T22:24:28.607Z,54.29
2023-07-15T22:26:56.197Z,54.42
2023-07-15T22:29:23.721Z,54.53
2023-07-15T22:31:51.192Z,54.61
2023-07-15T22:34:18.680Z,54.74
2023-07-15T22:36:46.360Z,54.93
2023-07-15T22:39:14.024Z,54.97
2023-07-15T22:41:41.556Z,55.02
2023-07-15T22:44:09.138Z,55.27
2023-07-15T22:46:36.660Z,55.54
2023-07-15T22:49:04.348Z,55.71
2023-07-15T22:51:31.968Z,55.80
2023-07-15T22:53:59.468Z,55.96
2023-07-15T22:56:27.144Z,56.05
2023-07-15T22:58:54.769Z,56.43
2023-07-15T23:01:22.318Z,56.53
2023-07-15T23:03:50.201Z,56.69
2023-07-15T23:06:17.937Z,56.91
2023-07-15T23:08:45.643Z,57.24
2023-07-15T23:11:13.274Z,57.38
2023-07-15T23:13:40.812Z,57.41
2023-07-15T23:16:17.324Z,57.73
2023-07-15T23:18:47.532Z,57.86
2023-07-15T23:21:15.161Z,57.91
2023-07-15T23:23:43.217Z,58.08
2023-07-15T23:26:10.870Z,58.19
2023-07-15T23:28:38.598Z,58.24
2023-07-15T23:31:06.562Z,58.20
2023-07-15T23:33:34.299Z,58.43
2023-07-15T23:36:01.767Z,58.47
2023-07-15T23:38:29.342Z,58.57
2023-07-15T23:40:56.997Z,58.56
2023-07-15T23:43:24.542Z,58.76
2023-07-15T23:45:52.168Z,58.84
2023-07-15T23:48:19.763Z,59.07
2023-07-15T23:50:47.300Z,59.32
2023-07-15T23:53:14.853Z,59.42
2023-07-15T23:55:42.461Z,59.54
2023-07-15T23:58:10.039Z,59.72
